createdAt,value
2019-02-22T00:00:46.462Z,9.60
2019-02-22T00:03:14.921Z,9.50
2019-02-22T00:05:43.398Z,9.50
2019-02-22T00:08:11.906Z,9.50
2019-02-22T00:10:40.342Z,9.50
2019-02-22T00:13:08.755Z,9.50
2019-02-22T00:15:37.370Z,9.40
2019-02-22T00:18:05.787Z,9.40
2019-02-22T00:20:34.294Z,9.40
2019-02-22T00:23:02.806Z,9.40
2019-02-22T00:25:31.286Z,9.40
2019-02-22T00:27:59.698Z,9.30
2019-02-22T00:30:28.135Z,9.30
2019-02-22T00:32:56.627Z,9.30
2019-02-22T00:35:25.126Z,9.30
2019-02-22T00:37:53.655Z,9.30
2019-02-22T00:40:22.097Z,9.30
2019-02-22T00:42:50.574Z,9.30
2019-02-22T00:45:19.090Z,9.30
2019-02-22T00:47:49.402Z,9.30
2019-02-22T00:50:17.823Z,9.20
2019-02-22T00:52:46.326Z,9.20
2019-02-22T00:55:14.779Z,9.30
2019-02-22T00:57:43.184Z,9.30
2019-02-22T01:00:11.614Z,9.20
2019-02-22T01:02:40.099Z,9.20
2019-02-22T01:05:08.521Z,9.20
2019-02-22T01:07:37.106Z,9.20
2019-02-22T01:10:06.070Z,9.20
2019-02-22T01:12:34.571Z,9.30
2019-02-22T01:15:03.062Z,9.30
2019-02-22T01:17:31.471Z,9.30
2019-02-22T01:20:00.021Z,9.30
2019-02-22T01:22:28.431Z,9.30
2019-02-22T01:24:56.844Z,9.20
2019-02-22T01:27:25.278Z,9.10
2019-02-22T01:29:53.778Z,9.10
2019-02-22T01:32:22.286Z,9.10
2019-02-22T01:34:50.798Z,9.00
2019-02-22T01:37:19.201Z,9.00
2019-02-22T01:39:47.620Z,9.00
2019-02-22T01:42:16.062Z,8.90
2019-02-22T01:44:44.547Z,8.90
2019-02-22T01:47:13.059Z,8.80
2019-02-22T01:49:41.498Z,8.80
2019-02-22T01:52:10.041Z,8.80
2019-02-22T01:54:38.457Z,8.80
2019-02-22T01:57:06.888Z,8.80
2019-02-22T01:59:37.029Z,8.70
2019-02-22T02:02:05.401Z,8.70
2019-02-22T02:04:33.934Z,8.70
2019-02-22T02:07:02.346Z,8.60
2019-02-22T02:09:30.827Z,8.60
2019-02-22T02:12:01.694Z,8.60
2019-02-22T02:14:29.392Z,8.60
2019-02-22T02:16:57.799Z,8.50
2019-02-22T02:19:26.415Z,8.50
2019-02-22T02:21:54.830Z,8.50
2019-02-22T02:24:23.251Z,8.50
2019-02-22T02:26:51.695Z,8.50
2019-02-22T02:29:20.172Z,8.50
2019-02-22T02:31:48.584Z,8.50
2019-02-22T02:34:17.023Z,8.50
2019-02-22T02:36:45.534Z,8.50
2019-02-22T02:39:13.938Z,8.60
2019-02-22T02:41:42.374Z,8.60
2019-02-22T02:44:10.786Z,8.50
2019-02-22T02:46:39.315Z,8.60
2019-02-22T02:49:07.747Z,8.60
2019-02-22T02:51:36.228Z,8.50
2019-02-22T02:54:04.698Z,8.50
2019-02-22T02:56:33.137Z,8.50
2019-02-22T02:59:01.615Z,8.50
2019-02-22T03:01:30.092Z,8.50
2019-02-22T03:03:58.534Z,8.50
2019-02-22T03:06:31.178Z,8.50
2019-02-22T03:08:59.680Z,8.50
2019-02-22T03:11:28.168Z,8.50
2019-02-22T03:13:56.642Z,8.50
2019-02-22T03:16:26.267Z,8.60
2019-02-22T03:18:54.866Z,8.60
2019-02-22T03:21:23.379Z,8.60
2019-02-22T03:23:51.927Z,8.70
2019-02-22T03:26:20.354Z,8.70
2019-02-22T03:28:48.774Z,8.80
2019-02-22T03:31:17.256Z,8.80
2019-02-22T03:33:45.697Z,8.70
2019-02-22T03:36:14.169Z,8.70
2019-02-22T03:38:42.680Z,8.70
2019-02-22T03:41:11.116Z,8.70
2019-02-22T03:43:39.587Z,8.70
2019-02-22T03:46:08.062Z,8.70
2019-02-22T03:48:36.507Z,8.70
2019-02-22T03:51:05.078Z,8.60
2019-02-22T03:53:35.131Z,8.60
2019-02-22T03:56:03.622Z,8.70
2019-02-22T03:58:32.058Z,8.60
2019-02-22T04:01:00.542Z,8.60
2019-02-22T04:03:29.054Z,8.60
2019-02-22T04:05:57.547Z,8.60
2019-02-22T04:08:26.016Z,8.60
2019-02-22T04:10:54.435Z,8.60
2019-02-22T04:13:22.993Z,8.60
2019-02-22T04:15:51.402Z,8.60
2019-02-22T04:18:19.938Z,8.60
2019-02-22T04:20:48.420Z,8.70
2019-02-22T04:23:16.892Z,8.70
2019-02-22T04:25:45.352Z,8.60
2019-02-22T04:28:13.758Z,8.60
2019-02-22T04:30:42.168Z,8.50
2019-02-22T04:33:10.603Z,8.50
2019-02-22T04:35:39.017Z,8.50
2019-02-22T04:38:07.443Z,8.40
2019-02-22T04:40:35.873Z,8.40
2019-02-22T04:43:04.402Z,8.40
2019-02-22T04:45:32.822Z,8.30
2019-02-22T04:48:01.416Z,8.30
2019-02-22T04:50:29.903Z,8.20
2019-02-22T04:52:58.427Z,8.20
2019-02-22T04:55:29.300Z,8.20
2019-02-22T04:57:56.999Z,8.10
2019-02-22T05:00:25.479Z,8.10
2019-02-22T05:02:54.022Z,8.10
2019-02-22T05:05:22.503Z,8.10
2019-02-22T05:07:50.944Z,8.10
2019-02-22T05:10:19.458Z,8.10
2019-02-22T05:12:47.867Z,8.00
2019-02-22T05:15:16.291Z,8.00
2019-02-22T05:17:44.726Z,8.00
2019-02-22T05:20:13.243Z,7.90
2019-02-22T05:22:41.655Z,7.90
2019-02-22T05:25:10.107Z,7.80
2019-02-22T05:27:38.517Z,7.80
2019-02-22T05:30:08.163Z,7.80
2019-02-22T05:32:36.671Z,7.70
2019-02-22T05:35:05.151Z,7.70
2019-02-22T05:37:33.636Z,7.70
2019-02-22T05:40:02.144Z,7.70
2019-02-22T05:42:30.620Z,7.70
2019-02-22T05:44:59.114Z,7.80
2019-02-22T05:47:27.550Z,7.70
2019-02-22T05:49:55.955Z,7.70
2019-02-22T05:52:24.494Z,7.70
2019-02-22T05:54:52.990Z,7.80
2019-02-22T05:57:21.485Z,7.70
2019-02-22T05:59:50.007Z,7.80
2019-02-22T06:02:18.520Z,7.80
2019-02-22T06:04:47.106Z,7.70
2019-02-22T06:07:15.578Z,7.70
2019-02-22T06:09:44.111Z,7.70
2019-02-22T06:12:12.573Z,7.70
2019-02-22T06:14:40.981Z,7.70
2019-02-22T06:17:14.619Z,7.70
2019-02-22T06:19:39.526Z,7.80
2019-02-22T06:22:07.935Z,7.80
2019-02-22T06:24:36.446Z,7.80
2019-02-22T06:27:04.927Z,7.90
2019-02-22T06:29:33.330Z,8.00
2019-02-22T06:32:01.766Z,8.10
2019-02-22T06:34:30.175Z,8.10
2019-02-22T06:37:02.159Z,8.10
2019-02-22T06:39:28.663Z,8.10
2019-02-22T06:41:57.066Z,8.10
2019-02-22T06:44:25.474Z,8.10
2019-02-22T06:46:53.998Z,8.20
2019-02-22T06:49:22.422Z,8.20
2019-02-22T06:51:50.896Z,8.20
2019-02-22T06:54:19.399Z,8.30
2019-02-22T06:56:47.887Z,8.40
2019-02-22T06:59:16.324Z,8.40
2019-02-22T07:01:44.802Z,8.50
2019-02-22T07:04:13.214Z,8.60
2019-02-22T07:06:41.652Z,8.60
2019-02-22T07:09:10.055Z,8.60
2019-02-22T07:11:40.111Z,8.60
2019-02-22T07:14:08.536Z,8.60
2019-02-22T07:16:37.014Z,8.60
2019-02-22T07:19:05.426Z,8.60
2019-02-22T07:21:49.200Z,8.60
2019-02-22T07:24:03.924Z,8.60
2019-02-22T07:26:32.390Z,8.60
2019-02-22T07:29:00.867Z,8.60
2019-02-22T07:31:29.293Z,8.70
2019-02-22T07:33:57.755Z,8.70
2019-02-22T07:36:26.199Z,8.70
2019-02-22T07:38:54.603Z,8.70
2019-02-22T07:41:23.082Z,8.80
2019-02-22T07:43:51.714Z,8.80
2019-02-22T07:46:20.748Z,8.80
2019-02-22T07:48:49.222Z,8.90
2019-02-22T07:51:17.736Z,8.90
2019-02-22T07:53:46.221Z,8.90
2019-02-22T07:56:14.623Z,8.90
2019-02-22T07:58:43.083Z,8.90
2019-02-22T08:01:11.641Z,8.90
2019-02-22T08:03:40.140Z,8.90
2019-02-22T08:06:08.578Z,8.90
2019-02-22T08:08:36.981Z,8.90
2019-02-22T08:11:05.571Z,9.00
2019-02-22T08:13:34.064Z,9.00
2019-02-22T08:16:02.542Z,9.10
2019-02-22T08:18:30.979Z,9.10
2019-02-22T08:20:59.386Z,9.10
2019-02-22T08:23:27.883Z,9.10
2019-02-22T08:25:56.467Z,9.10
2019-02-22T08:28:24.882Z,9.20
2019-02-22T08:30:53.325Z,9.20
2019-02-22T08:33:21.766Z,9.20
2019-02-22T08:35:50.246Z,9.20
2019-02-22T08:38:18.649Z,9.20
2019-02-22T08:40:47.082Z,9.30
2019-02-22T08:43:15.489Z,9.30
2019-02-22T08:45:43.976Z,9.30
2019-02-22T08:48:12.404Z,9.30
2019-02-22T08:50:40.811Z,9.30
2019-02-22T08:53:09.224Z,9.30
2019-02-22T08:55:37.655Z,9.30
2019-02-22T08:58:06.139Z,9.40
2019-02-22T09:00:34.543Z,9.40
2019-02-22T09:03:03.121Z,9.40
2019-02-22T09:05:31.600Z,9.40
2019-02-22T09:08:00.107Z,9.40
2019-02-22T09:10:28.639Z,9.40
2019-02-22T09:12:57.208Z,9.40
2019-02-22T09:15:25.663Z,9.50
2019-02-22T09:17:55.347Z,9.50
2019-02-22T09:20:24.013Z,9.50
2019-02-22T09:22:52.451Z,9.60
2019-02-22T09:25:20.959Z,9.60
2019-02-22T09:27:49.603Z,9.60
2019-02-22T09:30:18.147Z,9.60
2019-02-22T09:32:46.587Z,9.60
2019-02-22T09:35:15.069Z,9.60
2019-02-22T09:37:43.546Z,9.70
2019-02-22T09:40:14.623Z,9.70
2019-02-22T09:42:42.543Z,9.70
2019-02-22T09:45:12.365Z,9.70
2019-02-22T09:47:40.866Z,9.70
2019-02-22T09:50:15.563Z,9.70
2019-02-22T09:52:44.002Z,9.70
2019-02-22T09:55:13.238Z,9.70
2019-02-22T09:57:41.800Z,9.80
2019-02-22T10:00:14.460Z,9.80
2019-02-22T10:02:44.837Z,9.80
2019-02-22T10:05:12.999Z,9.90
2019-02-22T10:07:41.438Z,9.90
2019-02-22T10:10:10.683Z,9.90
2019-02-22T10:12:39.091Z,9.90
2019-02-22T10:15:09.274Z,10.00
2019-02-22T10:17:37.679Z,10.00
2019-02-22T10:20:08.701Z,10.00
2019-02-22T10:22:37.134Z,10.00
2019-02-22T10:25:06.458Z,10.10
2019-02-22T10:27:34.938Z,10.10
2019-02-22T10:30:03.454Z,10.20
2019-02-22T10:32:31.939Z,10.20
2019-02-22T10:35:01.466Z,10.30
2019-02-22T10:37:30.044Z,10.40
2019-02-22T10:39:58.518Z,10.40
2019-02-22T10:42:26.943Z,10.50
2019-02-22T10:44:55.451Z,10.50
2019-02-22T10:47:23.863Z,10.60
2019-02-22T10:49:52.278Z,10.60
2019-02-22T10:52:20.786Z,10.60
2019-02-22T10:54:49.266Z,10.60
2019-02-22T10:57:17.689Z,10.60
2019-02-22T10:59:46.159Z,10.60
2019-02-22T11:02:14.577Z,10.60
2019-02-22T11:04:43.050Z,10.60
2019-02-22T11:07:11.566Z,10.60
2019-02-22T11:09:39.982Z,10.70
2019-02-22T11:12:08.389Z,10.70
2019-02-22T11:14:36.905Z,10.70
2019-02-22T11:17:05.387Z,10.70
2019-02-22T11:19:33.798Z,10.80
2019-02-22T11:22:02.311Z,10.80
2019-02-22T11:24:30.783Z,10.80
2019-02-22T11:26:59.205Z,10.80
2019-02-22T11:29:27.721Z,10.80
2019-02-22T11:31:56.203Z,10.90
2019-02-22T11:34:24.686Z,10.90
2019-02-22T11:36:53.131Z,10.90
2019-02-22T11:39:21.531Z,11.00
2019-02-22T11:41:50.015Z,11.10
2019-02-22T11:44:18.454Z,11.20
2019-02-22T11:46:47.067Z,11.20
2019-02-22T11:49:15.554Z,11.20
2019-02-22T11:51:44.062Z,11.20
2019-02-22T11:54:12.535Z,11.30
2019-02-22T11:56:40.948Z,11.30
2019-02-22T11:59:09.387Z,11.30
2019-02-22T12:01:37.834Z,11.30
2019-02-22T12:04:06.317Z,11.30
2019-02-22T12:06:34.754Z,11.30
2019-02-22T12:09:04.034Z,11.30
2019-02-22T12:11:32.456Z,11.30
2019-02-22T12:14:00.891Z,11.30
2019-02-22T12:16:29.335Z,11.30
2019-02-22T12:18:57.817Z,11.40
2019-02-22T12:21:26.331Z,11.40
2019-02-22T12:23:55.510Z,11.40
2019-02-22T12:26:23.987Z,11.40
2019-02-22T12:28:52.434Z,11.40
2019-02-22T12:31:21.038Z,11.40
2019-02-22T12:33:49.514Z,11.40
2019-02-22T12:36:18.035Z,11.40
2019-02-22T12:38:46.462Z,11.30
2019-02-22T12:41:14.902Z,11.40
2019-02-22T12:43:43.311Z,11.40
2019-02-22T12:46:11.725Z,11.50
2019-02-22T12:48:40.237Z,11.50
2019-02-22T12:51:08.678Z,11.50
2019-02-22T12:53:37.166Z,11.60
2019-02-22T12:56:05.566Z,11.60
2019-02-22T12:58:35.378Z,11.70
2019-02-22T13:01:03.857Z,11.70
2019-02-22T13:03:32.375Z,11.70
2019-02-22T13:06:00.780Z,11.70
2019-02-22T13:08:29.185Z,11.70
2019-02-22T13:10:57.668Z,11.80
2019-02-22T13:13:26.151Z,11.80
2019-02-22T13:15:54.630Z,11.80
2019-02-22T13:18:23.141Z,11.80
2019-02-22T13:20:53.240Z,11.80
2019-02-22T13:23:21.792Z,11.80
2019-02-22T13:25:50.242Z,11.80
2019-02-22T13:28:18.648Z,11.90
2019-02-22T13:30:47.127Z,11.90
2019-02-22T13:33:15.651Z,11.90
2019-02-22T13:35:44.095Z,11.90
2019-02-22T13:38:12.583Z,12.00
2019-02-22T13:40:41.038Z,11.90
2019-02-22T13:43:09.442Z,12.00
2019-02-22T13:45:37.850Z,12.00
2019-02-22T13:48:06.290Z,12.00
2019-02-22T13:50:34.774Z,12.00
2019-02-22T13:53:03.254Z,12.00
2019-02-22T13:55:31.690Z,12.00
2019-02-22T13:58:00.104Z,11.90
2019-02-22T14:00:28.524Z,11.90
2019-02-22T14:02:57.045Z,11.90
2019-02-22T14:05:25.552Z,11.80
2019-02-22T14:07:55.094Z,11.80
2019-02-22T14:10:24.367Z,11.80
2019-02-22T14:12:52.783Z,11.70
2019-02-22T14:15:21.732Z,11.70
2019-02-22T14:17:50.285Z,11.80
2019-02-22T14:20:18.854Z,11.80
2019-02-22T14:22:48.994Z,11.80
2019-02-22T14:25:17.402Z,11.80
2019-02-22T14:27:45.845Z,11.80
2019-02-22T14:30:16.654Z,11.70
2019-02-22T14:32:45.530Z,11.70
2019-02-22T14:35:13.951Z,11.70
2019-02-22T14:37:42.477Z,11.70
2019-02-22T14:40:13.202Z,11.70
2019-02-22T14:42:41.633Z,11.70
2019-02-22T14:45:11.382Z,11.70
2019-02-22T14:47:39.832Z,11.80
2019-02-22T14:50:18.802Z,11.80
2019-02-22T14:52:47.343Z,11.80
2019-02-22T14:55:15.854Z,11.80
2019-02-22T14:57:45.198Z,11.80
2019-02-22T15:00:19.194Z,11.90
2019-02-22T15:02:47.679Z,11.90
2019-02-22T15:05:16.263Z,11.90
2019-02-22T15:07:44.771Z,11.90
2019-02-22T15:10:13.183Z,11.90
2019-02-22T15:12:41.598Z,12.00
2019-02-22T15:15:12.678Z,12.00
2019-02-22T15:17:48.662Z,12.00
2019-02-22T15:20:17.119Z,12.00
2019-02-22T15:22:45.626Z,12.00
2019-02-22T15:25:15.779Z,12.00
2019-02-22T15:27:44.259Z,12.00
2019-02-22T15:30:14.721Z,12.00
2019-02-22T15:32:43.125Z,12.00
2019-02-22T15:35:14.166Z,12.00
2019-02-22T15:37:43.447Z,12.00
2019-02-22T15:40:14.012Z,12.00
2019-02-22T15:42:42.454Z,12.00
2019-02-22T15:45:18.392Z,12.00
2019-02-22T15:47:48.804Z,12.00
2019-02-22T15:50:18.026Z,12.00
2019-02-22T15:52:47.398Z,12.00
2019-02-22T15:55:16.828Z,12.00
2019-02-22T15:57:45.350Z,12.00
2019-02-22T16:00:17.382Z,12.00
2019-02-22T16:02:45.907Z,12.00
2019-02-22T16:05:15.960Z,12.00
2019-02-22T16:07:45.087Z,12.00
2019-02-22T16:10:13.726Z,12.00
2019-02-22T16:12:42.152Z,12.00
2019-02-22T16:15:11.672Z,12.00
2019-02-22T16:17:40.123Z,12.00
2019-02-22T16:20:08.782Z,12.00
2019-02-22T16:22:37.187Z,12.00
2019-02-22T16:25:06.685Z,12.00
2019-02-22T16:27:35.187Z,12.00
2019-02-22T16:30:04.515Z,11.90
2019-02-22T16:32:32.955Z,11.90
2019-02-22T16:35:01.457Z,12.00
2019-02-22T16:37:29.868Z,11.90
2019-02-22T16:39:58.646Z,11.90
2019-02-22T16:42:27.113Z,11.90
2019-02-22T16:44:55.582Z,12.00
2019-02-22T16:47:24.111Z,12.00
2019-02-22T16:49:52.604Z,12.00
2019-02-22T16:52:21.398Z,12.00
2019-02-22T16:54:49.847Z,12.10
2019-02-22T16:57:18.336Z,12.10
2019-02-22T16:59:46.746Z,12.20
2019-02-22T17:02:15.273Z,12.10
2019-02-22T17:04:43.744Z,12.20
2019-02-22T17:07:12.167Z,12.20
2019-02-22T17:09:40.598Z,12.30
2019-02-22T17:12:09.030Z,12.30
2019-02-22T17:14:37.523Z,12.30
2019-02-22T17:17:06.027Z,12.30
2019-02-22T17:19:34.474Z,12.30
2019-02-22T17:22:02.888Z,12.30
2019-02-22T17:24:31.383Z,12.40
2019-02-22T17:26:59.891Z,12.30
2019-02-22T17:29:28.305Z,12.30
2019-02-22T17:31:56.822Z,12.30
2019-02-22T17:34:30.529Z,12.30
2019-02-22T17:36:59.143Z,12.30
2019-02-22T17:39:27.549Z,12.30
2019-02-22T17:41:57.911Z,12.40
2019-02-22T17:44:26.337Z,12.40
2019-02-22T17:46:57.915Z,12.40
2019-02-22T17:49:25.007Z,12.50
2019-02-22T17:51:53.530Z,12.60
2019-02-22T17:54:22.175Z,12.60
2019-02-22T17:56:50.648Z,12.70
2019-02-22T17:59:19.159Z,12.80
2019-02-22T18:01:47.718Z,12.70
2019-02-22T18:04:16.175Z,12.70
2019-02-22T18:06:45.233Z,12.70
2019-02-22T18:09:13.827Z,12.80
2019-02-22T18:11:42.240Z,12.80
2019-02-22T18:14:10.691Z,12.90
2019-02-22T18:16:39.110Z,12.90
2019-02-22T18:19:07.582Z,12.90
2019-02-22T18:21:36.102Z,12.80
2019-02-22T18:24:04.589Z,12.80
2019-02-22T18:26:33.018Z,12.80
2019-02-22T18:29:01.535Z,12.70
2019-02-22T18:31:29.946Z,12.40
2019-02-22T18:33:58.398Z,12.10
2019-02-22T18:36:26.827Z,12.10
2019-02-22T18:38:55.334Z,12.30
2019-02-22T18:41:23.846Z,12.30
2019-02-22T18:43:52.333Z,12.40
2019-02-22T18:46:20.749Z,12.30
2019-02-22T18:48:49.258Z,12.10
2019-02-22T18:51:17.744Z,12.10
2019-02-22T18:53:46.252Z,12.10
2019-02-22T18:56:14.737Z,12.00
2019-02-22T18:58:43.152Z,12.00
2019-02-22T19:01:11.554Z,11.90
2019-02-22T19:03:40.070Z,11.90
2019-02-22T19:06:08.492Z,11.90
2019-02-22T19:08:37.039Z,11.90
2019-02-22T19:11:05.493Z,11.90
2019-02-22T19:13:33.983Z,11.90
2019-02-22T19:16:02.470Z,11.70
2019-02-22T19:18:30.997Z,11.60
2019-02-22T19:20:59.471Z,11.50
2019-02-22T19:23:27.896Z,11.40
2019-02-22T19:25:56.339Z,11.30
2019-02-22T19:28:24.822Z,11.20
2019-02-22T19:30:53.248Z,11.10
2019-02-22T19:33:21.779Z,11.10
2019-02-22T19:35:50.264Z,11.10
2019-02-22T19:38:18.746Z,11.00
2019-02-22T19:40:47.287Z,10.90
2019-02-22T19:43:15.706Z,10.80
2019-02-22T19:45:44.203Z,10.80
2019-02-22T19:48:12.649Z,10.80
2019-02-22T19:50:41.836Z,10.80
2019-02-22T19:53:11.883Z,10.80
2019-02-22T19:55:40.430Z,10.90
2019-02-22T19:58:08.968Z,11.00
2019-02-22T20:00:37.407Z,11.20
2019-02-22T20:03:05.935Z,11.40
2019-02-22T20:05:34.346Z,11.40
2019-02-22T20:08:02.813Z,11.50
2019-02-22T20:10:31.428Z,11.50
2019-02-22T20:13:00.025Z,11.50
2019-02-22T20:15:28.442Z,11.50
2019-02-22T20:17:58.255Z,11.50
2019-02-22T20:20:26.675Z,11.50
2019-02-22T20:22:55.206Z,11.50
2019-02-22T20:25:23.789Z,11.60
2019-02-22T20:27:52.240Z,11.60
2019-02-22T20:30:20.721Z,11.60
2019-02-22T20:32:49.268Z,11.60
2019-02-22T20:35:28.670Z,11.60
2019-02-22T20:37:57.113Z,11.60
2019-02-22T20:40:25.693Z,11.60
2019-02-22T20:42:55.375Z,11.60
2019-02-22T20:45:23.894Z,11.60
2019-02-22T20:47:52.438Z,11.60
2019-02-22T20:50:21.019Z,11.60
2019-02-22T20:52:49.547Z,11.60
2019-02-22T20:55:19.982Z,11.60
2019-02-22T20:57:48.133Z,11.60
2019-02-22T21:00:22.349Z,11.60
2019-02-22T21:02:50.764Z,11.60
2019-02-22T21:05:19.176Z,11.50
2019-02-22T21:07:47.614Z,11.50
2019-02-22T21:10:18.459Z,11.50
2019-02-22T21:12:46.877Z,11.50
2019-02-22T21:15:15.330Z,11.50
2019-02-22T21:17:43.817Z,11.40
2019-02-22T21:20:14.351Z,11.40
2019-02-22T21:22:42.853Z,11.40
2019-02-22T21:25:11.390Z,11.40
2019-02-22T21:27:39.802Z,11.40
2019-02-22T21:30:16.455Z,11.40
2019-02-22T21:32:44.944Z,11.40
2019-02-22T21:35:13.426Z,11.40
2019-02-22T21:37:43.106Z,11.40
2019-02-22T21:40:12.358Z,11.40
2019-02-22T21:42:40.773Z,11.30
2019-02-22T21:45:14.062Z,11.30
2019-02-22T21:47:53.660Z,11.30
2019-02-22T21:50:13.811Z,11.30
2019-02-22T21:52:42.286Z,11.30
2019-02-22T21:55:12.138Z,11.20
2019-02-22T21:57:40.623Z,11.20
2019-02-22T22:00:17.358Z,11.20
2019-02-22T22:02:45.975Z,11.20
2019-02-22T22:05:14.399Z,11.20
2019-02-22T22:07:42.874Z,11.10
2019-02-22T22:10:11.317Z,11.10
2019-02-22T22:12:39.731Z,11.10
2019-02-22T22:15:12.810Z,11.10
2019-02-22T22:17:41.275Z,11.10
2019-02-22T22:20:10.391Z,11.10
2019-02-22T22:22:39.206Z,11.10
2019-02-22T22:25:14.687Z,11.10
2019-02-22T22:27:43.102Z,11.10
2019-02-22T22:30:17.703Z,11.10
2019-02-22T22:32:46.154Z,11.00
2019-02-22T22:35:16.306Z,11.00
2019-02-22T22:37:44.722Z,11.00
2019-02-22T22:40:13.189Z,11.00
2019-02-22T22:42:41.595Z,11.00
2019-02-22T22:45:11.751Z,11.00
2019-02-22T22:47:40.280Z,11.00
2019-02-22T22:50:13.307Z,11.00
2019-02-22T22:52:41.773Z,10.90
2019-02-22T22:55:10.850Z,10.90
2019-02-22T22:57:39.278Z,10.90
2019-02-22T23:00:16.362Z,10.80
2019-02-22T23:02:44.851Z,10.70
2019-02-22T23:05:13.290Z,10.70
2019-02-22T23:07:41.738Z,10.70
2019-02-22T23:10:10.222Z,10.70
2019-02-22T23:12:38.701Z,10.70
2019-02-22T23:15:07.209Z,10.70
2019-02-22T23:17:35.695Z,10.70
2019-02-22T23:20:05.809Z,10.80
2019-02-22T23:22:34.335Z,10.80
2019-02-22T23:25:02.810Z,10.80
2019-02-22T23:27:31.263Z,10.80
2019-02-22T23:29:59.751Z,10.90
2019-02-22T23:32:28.239Z,11.00
2019-02-22T23:34:56.770Z,11.00
2019-02-22T23:37:25.314Z,11.00
2019-02-22T23:39:54.888Z,11.00
2019-02-22T23:42:23.356Z,11.00
2019-02-22T23:44:51.894Z,11.00
2019-02-22T23:47:20.430Z,11.10
2019-02-22T23:49:48.914Z,11.10
2019-02-22T23:52:17.377Z,11.10
2019-02-22T23:54:45.851Z,11.10
2019-02-22T23:57:14.303Z,11.10
2019-02-22T23:59:42.734Z,11.10
